Time;durP1;ratioP1;P1;durP2;ratioP2;P2;SDS_P1;SDS_P2;PMS_P1;PMS_P2;Temp;Humidity;BMP_temperature;BMP_pressure;BME280_temperature;BME280_humidity;BME280_pressure;Samples;Min_cycle;Max_cycle;Signal;HPM_P1;HPM_P2
2021/12/31 00:01:05;;;;;;;;;;;21.30;48.80;;;;;;487446;243;1409;-75
2021/12/31 00:03:07;;;;;;;;;;;21.20;48.90;;;;;;487413;243;1177;-75
2021/12/31 00:05:08;;;;;;;;;;;21.30;48.50;;;;;;487389;244;928;-75
2021/12/31 00:07:10;;;;;;;;;;;21.60;48.40;;;;;;487380;243;1050;-75
2021/12/31 00:09:11;;;;;;;;;;;21.70;48.20;;;;;;487411;243;1051;-75
2021/12/31 00:11:12;;;;;;;;;;;21.40;48.50;;;;;;487432;243;1215;-75
2021/12/31 00:13:13;;;;;;;;;;;21.20;48.70;;;;;;487464;243;947;-75
2021/12/31 00:15:15;;;;;;;;;;;21.30;48.70;;;;;;487411;243;2186;-75
2021/12/31 00:17:16;;;;;;;;;;;21.30;48.80;;;;;;487448;243;1102;-75
2021/12/31 00:19:17;;;;;;;;;;;21.30;48.60;;;;;;487398;243;1165;-75
2021/12/31 00:21:19;;;;;;;;;;;21.10;49.10;;;;;;487440;243;1456;-75
2021/12/31 00:23:24;;;;;;;;;;;21.10;49.10;;;;;;487357;243;1099;-75
2021/12/31 00:25:21;;;;;;;;;;;21.30;49.00;;;;;;487216;244;1398;-75
2021/12/31 00:27:23;;;;;;;;;;;21.50;48.70;;;;;;487381;243;1279;-75
2021/12/31 00:29:24;;;;;;;;;;;21.40;48.30;;;;;;487444;243;1033;-75
2021/12/31 00:31:26;;;;;;;;;;;21.20;48.60;;;;;;487480;240;1224;-75
2021/12/31 00:33:27;;;;;;;;;;;21.40;48.80;;;;;;487482;243;1376;-75
2021/12/31 00:35:28;;;;;;;;;;;21.10;48.70;;;;;;487410;243;2182;-75
2021/12/31 00:37:29;;;;;;;;;;;21.00;49.10;;;;;;487343;243;1221;-75
2021/12/31 00:39:31;;;;;;;;;;;21.50;48.20;;;;;;487456;243;1082;-75
2021/12/31 00:41:32;;;;;;;;;;;21.30;48.70;;;;;;487491;243;1186;-75
2021/12/31 00:43:33;;;;;;;;;;;21.10;49.10;;;;;;487463;243;1039;-75
2021/12/31 00:45:37;;;;;;;;;;;21.20;48.60;;;;;;487393;243;1185;-75
2021/12/31 00:47:37;;;;;;;;;;;21.30;48.60;;;;;;487266;243;1435;-75
2021/12/31 00:49:38;;;;;;;;;;;21.50;48.50;;;;;;487330;243;1129;-75
2021/12/31 00:51:40;;;;;;;;;;;21.30;48.60;;;;;;487302;243;1198;-75
2021/12/31 00:53:41;;;;;;;;;;;21.60;48.40;;;;;;487491;243;1095;-75
2021/12/31 00:55:42;;;;;;;;;;;21.40;48.70;;;;;;487375;243;2107;-75
2021/12/31 00:57:44;;;;;;;;;;;21.10;48.90;;;;;;487385;243;1234;-75
2021/12/31 00:59:45;;;;;;;;;;;21.10;49.00;;;;;;487465;243;954;-75
2021/12/31 01:01:46;;;;;;;;;;;21.10;49.20;;;;;;487255;243;1214;-75
2021/12/31 01:03:48;;;;;;;;;;;21.20;48.60;;;;;;487375;243;1164;-75
2021/12/31 01:05:49;;;;;;;;;;;21.40;48.60;;;;;;487367;243;1132;-75
2021/12/31 01:07:50;;;;;;;;;;;20.90;49.40;;;;;;487364;243;1147;-75
2021/12/31 01:09:53;;;;;;;;;;;21.30;48.40;;;;;;487445;243;1026;-75
2021/12/31 01:11:54;;;;;;;;;;;21.30;48.50;;;;;;487480;243;1403;-75
2021/12/31 01:13:58;;;;;;;;;;;21.50;48.20;;;;;;487481;243;1408;-75
2021/12/31 01:15:59;;;;;;;;;;;21.40;48.50;;;;;;487281;244;2130;-75
2021/12/31 01:20:24;;;;;;;;;;;21.30;48.90;;;;;;486074;244;1236;-75
2021/12/31 01:22:29;;;;;;;;;;;21.40;48.70;;;;;;487383;243;1134;-75
2021/12/31 01:24:28;;;;;;;;;;;21.30;48.90;;;;;;487247;244;1321;-75
2021/12/31 01:26:29;;;;;;;;;;;21.00;49.20;;;;;;487251;244;1451;-75
2021/12/31 01:28:29;;;;;;;;;;;21.20;48.60;;;;;;487418;243;1354;-75
2021/12/31 01:30:31;;;;;;;;;;;21.10;49.00;;;;;;487402;243;1010;-75
2021/12/31 01:32:32;;;;;;;;;;;21.30;48.60;;;;;;487245;243;1124;-75
2021/12/31 01:34:33;;;;;;;;;;;21.50;48.40;;;;;;487359;243;2179;-75
2021/12/31 01:36:35;;;;;;;;;;;21.40;48.50;;;;;;487269;243;1122;-75
2021/12/31 01:38:36;;;;;;;;;;;21.80;47.30;;;;;;487308;243;1058;-75
2021/12/31 01:40:37;;;;;;;;;;;21.40;48.40;;;;;;487364;243;1215;-75
2021/12/31 01:42:39;;;;;;;;;;;21.20;48.70;;;;;;487488;243;1177;-75
2021/12/31 01:44:43;;;;;;;;;;;21.10;49.00;;;;;;487511;243;1065;-75
2021/12/31 01:46:41;;;;;;;;;;;21.20;48.70;;;;;;487130;244;1443;-75
2021/12/31 01:49:01;;;;;;;;;;;21.20;48.50;;;;;;487523;243;1559;-75
2021/12/31 01:50:51;;;;;;;;;;;21.20;48.70;;;;;;486543;244;1465;-75
2021/12/31 01:52:52;;;;;;;;;;;21.00;49.20;;;;;;487299;243;1062;-75
2021/12/31 01:54:53;;;;;;;;;;;21.40;48.70;;;;;;487399;243;2193;-75
2021/12/31 01:56:55;;;;;;;;;;;21.10;49.00;;;;;;487329;243;1117;-75
2021/12/31 01:58:56;;;;;;;;;;;21.10;49.10;;;;;;487538;243;1094;-75
2021/12/31 02:01:03;;;;;;;;;;;21.00;48.90;;;;;;487358;243;1283;-75
2021/12/31 02:03:00;;;;;;;;;;;21.40;48.50;;;;;;487045;244;1379;-75
2021/12/31 02:05:01;;;;;;;;;;;21.30;48.40;;;;;;487418;243;1143;-75
2021/12/31 02:07:02;;;;;;;;;;;21.00;49.00;;;;;;487362;243;1157;-75
2021/12/31 02:09:04;;;;;;;;;;;21.30;48.60;;;;;;487401;243;923;-75
2021/12/31 02:11:05;;;;;;;;;;;21.40;48.30;;;;;;487348;243;1188;-75
2021/12/31 02:13:07;;;;;;;;;;;21.40;48.60;;;;;;487448;243;959;-75
2021/12/31 02:15:08;;;;;;;;;;;21.00;48.80;;;;;;487446;243;2115;-75
2021/12/31 02:17:10;;;;;;;;;;;21.10;48.60;;;;;;487301;243;1199;-75
2021/12/31 02:19:11;;;;;;;;;;;21.20;48.30;;;;;;487356;243;1413;-75
2021/12/31 02:21:12;;;;;;;;;;;21.30;48.70;;;;;;487430;243;1379;-75
2021/12/31 02:23:13;;;;;;;;;;;21.10;48.80;;;;;;487361;243;1184;-75
2021/12/31 02:25:15;;;;;;;;;;;21.10;48.70;;;;;;487481;243;978;-75
2021/12/31 02:27:16;;;;;;;;;;;21.30;48.40;;;;;;487274;243;1209;-75
2021/12/31 02:29:17;;;;;;;;;;;21.60;48.10;;;;;;487384;243;921;-75
2021/12/31 02:31:19;;;;;;;;;;;21.20;48.60;;;;;;487240;243;1230;-75
2021/12/31 02:33:20;;;;;;;;;;;21.50;48.10;;;;;;487395;243;1132;-75
2021/12/31 02:35:21;;;;;;;;;;;21.20;48.40;;;;;;487389;243;2131;-75
2021/12/31 02:37:23;;;;;;;;;;;21.40;48.40;;;;;;487288;243;1112;-75
2021/12/31 02:39:24;;;;;;;;;;;21.10;48.70;;;;;;487460;243;1009;-75
2021/12/31 02:41:25;;;;;;;;;;;21.30;48.20;;;;;;487312;243;1208;-75
2021/12/31 02:43:27;;;;;;;;;;;21.60;47.70;;;;;;487426;243;1067;-75
2021/12/31 02:45:31;;;;;;;;;;;21.20;48.40;;;;;;487407;243;935;-75
2021/12/31 02:47:30;;;;;;;;;;;21.30;48.80;;;;;;487301;244;1488;-75
2021/12/31 02:49:35;;;;;;;;;;;21.10;48.80;;;;;;487477;243;983;-75
2021/12/31 02:51:34;;;;;;;;;;;21.20;48.40;;;;;;487141;244;1947;-75
2021/12/31 02:53:35;;;;;;;;;;;21.30;48.20;;;;;;487352;243;990;-75
2021/12/31 02:55:37;;;;;;;;;;;21.30;48.10;;;;;;487376;243;2242;-75
2021/12/31 02:57:38;;;;;;;;;;;21.40;48.40;;;;;;487362;243;1119;-75
2021/12/31 02:59:39;;;;;;;;;;;21.20;48.40;;;;;;487423;243;1192;-75
2021/12/31 03:01:41;;;;;;;;;;;21.20;48.40;;;;;;487251;243;1352;-75
2021/12/31 03:03:42;;;;;;;;;;;21.00;48.80;;;;;;487391;243;1025;-75
2021/12/31 03:05:43;;;;;;;;;;;21.10;48.60;;;;;;487387;243;1194;-75
2021/12/31 03:07:45;;;;;;;;;;;21.00;48.70;;;;;;487334;243;1109;-75
2021/12/31 03:09:47;;;;;;;;;;;21.20;48.40;;;;;;487430;243;951;-75
2021/12/31 03:11:47;;;;;;;;;;;21.30;48.00;;;;;;487275;243;1515;-75
2021/12/31 03:13:51;;;;;;;;;;;21.20;48.40;;;;;;487347;243;943;-75
2021/12/31 03:15:51;;;;;;;;;;;21.00;48.90;;;;;;487219;244;2120;-75
2021/12/31 03:17:52;;;;;;;;;;;20.90;49.00;;;;;;487384;243;1431;-75
2021/12/31 03:20:07;;;;;;;;;;;21.00;48.80;;;;;;487376;243;1047;-75
2021/12/31 03:21:55;;;;;;;;;;;21.10;48.80;;;;;;486471;245;1427;-75
2021/12/31 03:23:58;;;;;;;;;;;21.10;48.50;;;;;;487422;243;924;-75
2021/12/31 03:25:58;;;;;;;;;;;21.20;48.50;;;;;;487462;244;1509;-75
2021/12/31 03:27:59;;;;;;;;;;;21.40;48.50;;;;;;487467;243;1092;-75
2021/12/31 03:30:01;;;;;;;;;;;21.20;48.80;;;;;;487480;243;930;-75
2021/12/31 03:32:02;;;;;;;;;;;21.30;48.70;;;;;;487330;243;1188;-75
2021/12/31 03:34:03;;;;;;;;;;;21.10;48.40;;;;;;487435;243;948;-75
2021/12/31 03:36:05;;;;;;;;;;;21.40;48.00;;;;;;487375;243;2111;-75
2021/12/31 03:38:06;;;;;;;;;;;21.10;48.70;;;;;;487355;243;1144;-75
2021/12/31 03:40:07;;;;;;;;;;;21.20;48.50;;;;;;487541;243;1134;-75
2021/12/31 03:42:09;;;;;;;;;;;21.50;48.00;;;;;;487449;243;1157;-75
2021/12/31 03:44:10;;;;;;;;;;;21.00;48.70;;;;;;487443;243;1502;-75
2021/12/31 03:46:11;;;;;;;;;;;21.00;49.00;;;;;;487347;243;1106;-75
2021/12/31 03:48:13;;;;;;;;;;;21.10;48.90;;;;;;487351;243;1107;-75
2021/12/31 03:50:14;;;;;;;;;;;21.20;48.70;;;;;;487417;243;983;-75
2021/12/31 03:52:15;;;;;;;;;;;21.10;48.50;;;;;;487374;243;1192;-75
2021/12/31 03:54:16;;;;;;;;;;;21.10;48.60;;;;;;487442;243;953;-75
2021/12/31 03:56:21;;;;;;;;;;;21.30;48.50;;;;;;487273;240;2186;-75
2021/12/31 03:58:20;;;;;;;;;;;21.20;48.20;;;;;;487221;243;1357;-75
2021/12/31 04:00:21;;;;;;;;;;;21.10;48.70;;;;;;487363;243;1063;-75
2021/12/31 04:02:22;;;;;;;;;;;21.10;48.60;;;;;;487359;243;1263;-75
2021/12/31 04:04:24;;;;;;;;;;;21.10;48.80;;;;;;487438;243;1025;-75
2021/12/31 04:06:25;;;;;;;;;;;21.30;48.40;;;;;;487338;243;1393;-75
2021/12/31 04:08:26;;;;;;;;;;;21.20;48.20;;;;;;487351;243;1112;-75
2021/12/31 04:10:28;;;;;;;;;;;21.20;48.40;;;;;;487453;243;1130;-75
2021/12/31 04:12:29;;;;;;;;;;;21.30;48.20;;;;;;487262;243;1415;-75
2021/12/31 04:14:30;;;;;;;;;;;21.70;47.60;;;;;;487410;243;945;-75
2021/12/31 04:16:32;;;;;;;;;;;21.40;48.00;;;;;;487321;243;2202;-75
2021/12/31 04:18:33;;;;;;;;;;;21.20;48.30;;;;;;487410;243;1093;-75
2021/12/31 04:20:42;;;;;;;;;;;21.10;48.50;;;;;;487364;243;1163;-75
2021/12/31 04:22:37;;;;;;;;;;;21.20;48.00;;;;;;486907;244;1354;-75
2021/12/31 04:24:52;;;;;;;;;;;21.10;48.70;;;;;;487361;244;1500;-75
2021/12/31 04:26:52;;;;;;;;;;;21.20;48.30;;;;;;487317;243;1464;-75
2021/12/31 04:28:54;;;;;;;;;;;21.00;48.70;;;;;;487525;243;971;-75
2021/12/31 04:30:55;;;;;;;;;;;21.20;48.60;;;;;;487418;243;1224;-75
2021/12/31 04:32:56;;;;;;;;;;;21.30;48.10;;;;;;487362;243;1138;-75
2021/12/31 04:34:58;;;;;;;;;;;21.10;48.30;;;;;;487438;243;966;-75
2021/12/31 04:36:59;;;;;;;;;;;21.30;48.00;;;;;;487341;243;2189;-75
2021/12/31 04:39:00;;;;;;;;;;;21.30;47.90;;;;;;487422;243;949;-75
2021/12/31 04:41:02;;;;;;;;;;;21.20;48.50;;;;;;487372;243;1227;-75
2021/12/31 04:43:03;;;;;;;;;;;21.10;48.30;;;;;;487330;244;1373;-75
2021/12/31 04:45:04;;;;;;;;;;;21.10;48.20;;;;;;487439;243;937;-75
2021/12/31 04:47:06;;;;;;;;;;;21.30;48.10;;;;;;487278;243;1118;-75
2021/12/31 04:49:07;;;;;;;;;;;21.10;48.70;;;;;;487421;243;936;-75
2021/12/31 04:51:08;;;;;;;;;;;21.20;48.20;;;;;;487360;240;1247;-75
2021/12/31 04:53:10;;;;;;;;;;;21.10;48.30;;;;;;487416;243;1140;-75
2021/12/31 04:55:11;;;;;;;;;;;21.20;48.20;;;;;;487417;243;1060;-75
2021/12/31 04:57:12;;;;;;;;;;;21.20;48.30;;;;;;487401;243;2186;-75
2021/12/31 04:59:14;;;;;;;;;;;21.20;48.20;;;;;;487533;243;1092;-75
2021/12/31 05:01:16;;;;;;;;;;;21.20;48.60;;;;;;487296;243;1314;-75
2021/12/31 05:03:16;;;;;;;;;;;21.10;48.50;;;;;;487332;244;1522;-75
2021/12/31 05:05:18;;;;;;;;;;;21.00;48.60;;;;;;487367;243;1126;-75
2021/12/31 05:07:19;;;;;;;;;;;21.40;48.20;;;;;;487231;243;1158;-75
2021/12/31 05:09:20;;;;;;;;;;;21.00;48.50;;;;;;487467;243;1542;-75
2021/12/31 05:11:22;;;;;;;;;;;21.20;48.10;;;;;;487305;240;1233;-75
2021/12/31 05:13:23;;;;;;;;;;;21.50;47.70;;;;;;487365;243;1091;-75
2021/12/31 05:15:27;;;;;;;;;;;21.20;48.00;;;;;;487446;243;932;-75
2021/12/31 05:17:27;;;;;;;;;;;21.40;47.70;;;;;;487250;244;2193;-75
2021/12/31 05:19:28;;;;;;;;;;;21.50;47.60;;;;;;487430;243;1103;-75
2021/12/31 05:21:29;;;;;;;;;;;21.20;48.10;;;;;;487359;243;1200;-75
2021/12/31 05:23:31;;;;;;;;;;;20.90;48.80;;;;;;487394;243;1112;-75
2021/12/31 05:25:32;;;;;;;;;;;21.00;48.80;;;;;;487403;243;1156;-75
2021/12/31 05:27:33;;;;;;;;;;;21.10;48.50;;;;;;487449;243;1216;-75
2021/12/31 05:29:34;;;;;;;;;;;21.10;48.30;;;;;;487433;243;1073;-75
2021/12/31 05:31:36;;;;;;;;;;;21.10;48.50;;;;;;487243;243;1112;-75
2021/12/31 05:33:37;;;;;;;;;;;21.10;48.20;;;;;;487471;243;1038;-75
2021/12/31 05:35:38;;;;;;;;;;;21.20;48.20;;;;;;487418;243;1177;-75
2021/12/31 05:37:40;;;;;;;;;;;21.50;47.90;;;;;;487378;243;2238;-75
2021/12/31 05:39:41;;;;;;;;;;;21.20;47.90;;;;;;487460;243;1370;-75
2021/12/31 05:41:42;;;;;;;;;;;21.10;48.10;;;;;;487373;243;1248;-75
2021/12/31 05:43:44;;;;;;;;;;;21.20;48.20;;;;;;487509;243;1029;-75
2021/12/31 05:45:45;;;;;;;;;;;21.10;48.30;;;;;;487399;243;1204;-75
2021/12/31 05:47:47;;;;;;;;;;;21.20;48.00;;;;;;487385;243;1158;-75
2021/12/31 05:49:48;;;;;;;;;;;21.20;47.90;;;;;;487557;243;1300;-75
2021/12/31 05:51:50;;;;;;;;;;;21.20;48.00;;;;;;487414;243;1211;-75
2021/12/31 05:53:51;;;;;;;;;;;21.20;47.80;;;;;;487436;243;1174;-75
2021/12/31 05:55:53;;;;;;;;;;;21.20;48.20;;;;;;487337;243;2178;-75
2021/12/31 05:57:55;;;;;;;;;;;21.10;48.30;;;;;;487339;243;1125;-75
2021/12/31 05:59:56;;;;;;;;;;;21.20;48.00;;;;;;487379;243;1371;-75
2021/12/31 06:01:57;;;;;;;;;;;21.20;47.70;;;;;;487289;243;1178;-75
2021/12/31 06:03:58;;;;;;;;;;;21.10;48.10;;;;;;487426;243;976;-75
2021/12/31 06:06:00;;;;;;;;;;;21.10;48.10;;;;;;487312;243;1123;-75
2021/12/31 06:08:01;;;;;;;;;;;20.90;48.40;;;;;;487274;243;1232;-75
2021/12/31 06:10:02;;;;;;;;;;;20.90;48.60;;;;;;487419;243;1055;-75
2021/12/31 06:12:04;;;;;;;;;;;21.00;48.50;;;;;;487349;243;1144;-75
2021/12/31 06:14:05;;;;;;;;;;;21.10;48.10;;;;;;487418;243;1155;-75
2021/12/31 06:16:06;;;;;;;;;;;21.00;48.50;;;;;;487306;243;2135;-75
2021/12/31 06:18:08;;;;;;;;;;;21.20;47.80;;;;;;487438;243;1144;-75
2021/12/31 06:20:09;;;;;;;;;;;21.10;48.00;;;;;;487434;243;1141;-75
2021/12/31 06:22:10;;;;;;;;;;;21.00;48.20;;;;;;487229;243;1362;-75
2021/12/31 06:24:12;;;;;;;;;;;21.10;48.10;;;;;;487369;243;1188;-75
2021/12/31 06:26:14;;;;;;;;;;;21.30;47.90;;;;;;487300;243;1102;-75
2021/12/31 06:28:14;;;;;;;;;;;21.10;48.30;;;;;;487354;243;1406;-75
2021/12/31 06:30:16;;;;;;;;;;;21.00;48.30;;;;;;487411;243;952;-75
2021/12/31 06:32:17;;;;;;;;;;;20.90;48.40;;;;;;487239;243;1086;-75
2021/12/31 06:34:18;;;;;;;;;;;21.00;48.30;;;;;;487402;243;963;-75
2021/12/31 06:36:20;;;;;;;;;;;21.20;47.60;;;;;;487277;243;2190;-75
2021/12/31 06:38:21;;;;;;;;;;;21.50;47.30;;;;;;487334;243;1473;-75
2021/12/31 06:40:23;;;;;;;;;;;21.10;47.90;;;;;;487393;243;981;-75
2021/12/31 06:42:25;;;;;;;;;;;21.30;47.40;;;;;;487305;243;1154;-75
2021/12/31 06:44:26;;;;;;;;;;;21.10;47.70;;;;;;487322;244;1531;-75
2021/12/31 06:46:27;;;;;;;;;;;21.00;47.90;;;;;;487415;243;1172;-75
2021/12/31 06:48:28;;;;;;;;;;;21.10;47.70;;;;;;487581;243;1154;-75
2021/12/31 06:50:30;;;;;;;;;;;21.00;48.20;;;;;;487487;243;1196;-75
2021/12/31 06:52:31;;;;;;;;;;;21.00;47.90;;;;;;487322;243;1132;-75
2021/12/31 06:54:32;;;;;;;;;;;21.20;47.40;;;;;;487429;243;1184;-75
2021/12/31 06:56:33;;;;;;;;;;;21.30;47.50;;;;;;487302;243;2194;-75
2021/12/31 06:58:35;;;;;;;;;;;21.30;47.40;;;;;;487432;243;1090;-75
2021/12/31 07:00:36;;;;;;;;;;;21.10;47.50;;;;;;487385;243;1118;-75
2021/12/31 07:02:38;;;;;;;;;;;21.10;47.60;;;;;;487226;243;1204;-75
2021/12/31 07:04:39;;;;;;;;;;;21.10;47.60;;;;;;487347;243;940;-75
2021/12/31 07:06:40;;;;;;;;;;;21.00;47.60;;;;;;487277;243;1247;-75
2021/12/31 07:08:41;;;;;;;;;;;21.20;47.10;;;;;;487355;243;1169;-75
2021/12/31 07:10:43;;;;;;;;;;;21.10;47.30;;;;;;487418;243;1068;-75
2021/12/31 07:12:44;;;;;;;;;;;21.30;47.20;;;;;;487397;243;1118;-75
2021/12/31 07:14:45;;;;;;;;;;;21.30;46.90;;;;;;487426;244;946;-75
2021/12/31 07:16:47;;;;;;;;;;;21.10;47.40;;;;;;487325;243;2190;-75
2021/12/31 07:18:48;;;;;;;;;;;21.30;47.00;;;;;;487458;243;961;-75
2021/12/31 07:20:49;;;;;;;;;;;21.30;47.20;;;;;;487388;243;1111;-75
2021/12/31 07:22:51;;;;;;;;;;;21.50;47.00;;;;;;487295;243;1127;-75
2021/12/31 07:24:52;;;;;;;;;;;21.30;46.90;;;;;;487447;243;1186;-75
2021/12/31 07:26:53;;;;;;;;;;;21.50;46.90;;;;;;487341;243;1125;-75
2021/12/31 07:28:55;;;;;;;;;;;21.40;46.70;;;;;;487426;243;1083;-75
2021/12/31 07:30:56;;;;;;;;;;;21.30;47.00;;;;;;487387;243;1270;-75
2021/12/31 07:32:57;;;;;;;;;;;20.90;47.50;;;;;;487365;243;1143;-75
2021/12/31 07:34:59;;;;;;;;;;;21.10;46.90;;;;;;487411;243;1049;-75
2021/12/31 07:37:00;;;;;;;;;;;21.20;47.00;;;;;;487303;243;2127;-75
2021/12/31 07:39:05;;;;;;;;;;;21.30;47.10;;;;;;487391;243;1124;-75
2021/12/31 07:41:03;;;;;;;;;;;21.40;46.60;;;;;;487120;240;1438;-75
2021/12/31 07:43:04;;;;;;;;;;;21.10;47.00;;;;;;487512;243;1356;-75
2021/12/31 07:45:05;;;;;;;;;;;21.10;46.80;;;;;;487424;243;981;-75
2021/12/31 07:47:07;;;;;;;;;;;21.40;46.50;;;;;;487377;243;1079;-75
2021/12/31 07:49:08;;;;;;;;;;;21.20;46.60;;;;;;487401;243;974;-75
2021/12/31 07:51:09;;;;;;;;;;;21.30;46.60;;;;;;487349;242;1217;-75
2021/12/31 07:53:11;;;;;;;;;;;21.20;46.80;;;;;;487384;243;1123;-75
2021/12/31 07:55:12;;;;;;;;;;;21.10;47.10;;;;;;487488;243;1154;-75
2021/12/31 07:57:13;;;;;;;;;;;21.20;47.10;;;;;;487436;243;2182;-75
2021/12/31 07:59:15;;;;;;;;;;;21.20;46.70;;;;;;487437;243;1083;-75
2021/12/31 08:01:17;;;;;;;;;;;21.00;47.00;;;;;;487291;243;1140;-75
2021/12/31 08:03:17;;;;;;;;;;;21.10;46.70;;;;;;487468;244;1415;-75
2021/12/31 08:05:19;;;;;;;;;;;21.30;46.50;;;;;;487400;243;964;-75
2021/12/31 08:07:20;;;;;;;;;;;20.90;47.10;;;;;;487257;243;1228;-75
2021/12/31 08:09:21;;;;;;;;;;;21.10;47.00;;;;;;487417;244;1144;-75
2021/12/31 08:11:23;;;;;;;;;;;21.10;46.90;;;;;;487320;243;1097;-75
2021/12/31 08:13:24;;;;;;;;;;;21.20;46.50;;;;;;487419;243;1092;-76
2021/12/31 08:15:26;;;;;;;;;;;21.20;46.50;;;;;;487400;243;956;-75
2021/12/31 08:17:27;;;;;;;;;;;21.30;46.10;;;;;;487248;243;2190;-75
2021/12/31 08:19:28;;;;;;;;;;;21.40;46.40;;;;;;487527;243;1040;-75
2021/12/31 08:21:30;;;;;;;;;;;21.20;46.40;;;;;;487328;243;1211;-75
2021/12/31 08:23:31;;;;;;;;;;;21.30;46.40;;;;;;487401;243;1084;-75
2021/12/31 08:25:32;;;;;;;;;;;21.30;46.70;;;;;;487407;243;1182;-76
2021/12/31 08:27:34;;;;;;;;;;;21.00;46.70;;;;;;487271;243;1074;-75
2021/12/31 08:29:35;;;;;;;;;;;21.60;46.20;;;;;;487370;243;962;-75
2021/12/31 08:31:36;;;;;;;;;;;21.20;46.40;;;;;;487354;243;1221;-75
2021/12/31 08:33:39;;;;;;;;;;;21.80;45.80;;;;;;487415;243;1065;-75
2021/12/31 08:35:39;;;;;;;;;;;21.60;45.30;;;;;;487293;244;1486;-75
2021/12/31 08:37:40;;;;;;;;;;;21.00;46.60;;;;;;487454;243;2131;-75
2021/12/31 08:39:42;;;;;;;;;;;20.60;47.90;;;;;;487426;243;1233;-75
2021/12/31 08:41:43;;;;;;;;;;;20.30;48.70;;;;;;487404;243;1411;-75
2021/12/31 08:43:44;;;;;;;;;;;20.10;49.30;;;;;;487441;243;1046;-75
2021/12/31 08:45:46;;;;;;;;;;;19.90;49.80;;;;;;487424;243;1073;-75
2021/12/31 08:47:47;;;;;;;;;;;19.80;50.10;;;;;;487507;243;1146;-75
2021/12/31 08:49:49;;;;;;;;;;;19.70;50.50;;;;;;487417;243;982;-75
2021/12/31 08:51:50;;;;;;;;;;;19.60;50.60;;;;;;487364;243;1131;-75
2021/12/31 08:53:51;;;;;;;;;;;19.60;50.80;;;;;;487382;243;992;-75
2021/12/31 08:55:53;;;;;;;;;;;19.50;51.00;;;;;;487375;243;1358;-75
2021/12/31 08:57:54;;;;;;;;;;;19.50;51.10;;;;;;487339;243;2171;-75
2021/12/31 08:59:55;;;;;;;;;;;19.50;51.30;;;;;;487389;243;988;-75
2021/12/31 09:01:57;;;;;;;;;;;19.50;51.30;;;;;;487247;243;1127;-75
2021/12/31 09:03:58;;;;;;;;;;;19.40;51.40;;;;;;487393;243;945;-75
2021/12/31 09:05:59;;;;;;;;;;;19.50;51.40;;;;;;487332;243;1189;-75
2021/12/31 09:08:01;;;;;;;;;;;19.40;51.50;;;;;;487365;243;1066;-75
2021/12/31 09:10:02;;;;;;;;;;;19.40;51.60;;;;;;487414;243;1187;-75
2021/12/31 09:12:03;;;;;;;;;;;19.40;51.60;;;;;;487280;243;1079;-75
2021/12/31 09:14:05;;;;;;;;;;;19.40;51.70;;;;;;487357;243;973;-75
2021/12/31 09:16:06;;;;;;;;;;;19.30;51.80;;;;;;487374;243;1305;-75
2021/12/31 09:18:07;;;;;;;;;;;19.40;52.00;;;;;;487443;243;2191;-75
2021/12/31 09:20:09;;;;;;;;;;;19.30;52.00;;;;;;487469;243;997;-75
2021/12/31 09:22:10;;;;;;;;;;;19.40;51.90;;;;;;487304;243;1067;-75
2021/12/31 09:24:11;;;;;;;;;;;19.30;51.90;;;;;;487471;243;1079;-75
2021/12/31 09:26:13;;;;;;;;;;;19.30;52.00;;;;;;487311;243;1247;-75
2021/12/31 09:28:15;;;;;;;;;;;19.30;51.90;;;;;;487363;243;1103;-75
2021/12/31 09:30:15;;;;;;;;;;;19.30;51.90;;;;;;487325;243;1293;-75
2021/12/31 09:32:17;;;;;;;;;;;19.30;52.10;;;;;;487396;243;1131;-75
2021/12/31 09:34:18;;;;;;;;;;;19.30;52.20;;;;;;487431;243;979;-75
2021/12/31 09:36:19;;;;;;;;;;;19.20;52.30;;;;;;487451;243;1235;-75
2021/12/31 09:38:21;;;;;;;;;;;19.30;52.20;;;;;;487463;243;2119;-75
2021/12/31 09:40:22;;;;;;;;;;;19.30;52.10;;;;;;487428;243;1259;-75
2021/12/31 09:42:23;;;;;;;;;;;19.30;52.30;;;;;;487425;243;1104;-75
2021/12/31 09:44:25;;;;;;;;;;;19.30;52.20;;;;;;487415;243;1032;-75
2021/12/31 09:46:26;;;;;;;;;;;19.40;52.10;;;;;;487323;240;1535;-75
2021/12/31 09:48:27;;;;;;;;;;;19.40;52.10;;;;;;487481;243;1014;-75
2021/12/31 09:50:29;;;;;;;;;;;19.30;51.90;;;;;;487415;243;954;-75
2021/12/31 09:52:30;;;;;;;;;;;19.30;52.00;;;;;;487389;243;1524;-75
2021/12/31 09:54:31;;;;;;;;;;;19.30;52.10;;;;;;487536;243;1095;-75
2021/12/31 09:56:39;;;;;;;;;;;19.30;52.10;;;;;;487348;243;1265;-75
2021/12/31 09:58:35;;;;;;;;;;;19.40;52.00;;;;;;486982;244;2115;-75
2021/12/31 10:00:36;;;;;;;;;;;19.30;52.00;;;;;;487359;240;1369;-75
2021/12/31 10:02:37;;;;;;;;;;;19.30;52.00;;;;;;487287;243;1066;-75
2021/12/31 10:04:39;;;;;;;;;;;19.30;52.00;;;;;;487372;243;1133;-75
2021/12/31 10:06:40;;;;;;;;;;;19.30;52.10;;;;;;487289;243;1196;-75
2021/12/31 10:08:42;;;;;;;;;;;19.30;52.00;;;;;;487428;243;1133;-75
2021/12/31 10:10:43;;;;;;;;;;;19.40;52.00;;;;;;487426;243;1141;-75
2021/12/31 10:12:44;;;;;;;;;;;19.30;51.90;;;;;;487412;243;1107;-75
2021/12/31 10:14:46;;;;;;;;;;;19.30;51.90;;;;;;487384;243;960;-75
2021/12/31 10:16:47;;;;;;;;;;;19.30;51.80;;;;;;487337;243;1190;-75
2021/12/31 10:18:49;;;;;;;;;;;19.40;51.80;;;;;;487464;243;2111;-75
2021/12/31 10:20:50;;;;;;;;;;;19.40;52.00;;;;;;487463;243;1146;-75
2021/12/31 10:22:52;;;;;;;;;;;19.30;52.00;;;;;;487418;243;1113;-75
2021/12/31 10:24:53;;;;;;;;;;;19.30;52.10;;;;;;487428;243;992;-75
2021/12/31 10:26:54;;;;;;;;;;;19.30;52.10;;;;;;487285;243;1203;-75
2021/12/31 10:28:56;;;;;;;;;;;19.30;52.10;;;;;;487340;243;1117;-75
2021/12/31 10:30:57;;;;;;;;;;;19.30;52.10;;;;;;487339;243;1198;-75
2021/12/31 10:32:58;;;;;;;;;;;19.30;52.20;;;;;;487386;243;1139;-75
2021/12/31 10:35:00;;;;;;;;;;;19.30;52.20;;;;;;487443;243;1060;-75
2021/12/31 10:37:01;;;;;;;;;;;19.30;52.10;;;;;;487345;243;1205;-75
2021/12/31 10:39:03;;;;;;;;;;;19.30;52.10;;;;;;487571;243;2178;-75
2021/12/31 10:41:05;;;;;;;;;;;19.30;52.10;;;;;;487387;243;1647;-75
2021/12/31 10:43:05;;;;;;;;;;;19.30;52.10;;;;;;487322;244;1446;-75
2021/12/31 10:45:07;;;;;;;;;;;19.40;52.00;;;;;;487389;243;965;-75
2021/12/31 10:47:08;;;;;;;;;;;19.50;51.60;;;;;;487250;243;1180;-75
2021/12/31 10:49:12;;;;;;;;;;;19.60;51.50;;;;;;487328;243;977;-75
2021/12/31 10:51:11;;;;;;;;;;;19.50;51.40;;;;;;487201;244;1430;-75
2021/12/31 10:53:13;;;;;;;;;;;19.50;51.40;;;;;;487358;243;1154;-75
2021/12/31 10:55:20;;;;;;;;;;;19.60;51.50;;;;;;487472;243;931;-75
2021/12/31 10:57:19;;;;;;;;;;;19.60;51.20;;;;;;487291;244;1503;-75
2021/12/31 10:59:21;;;;;;;;;;;19.60;51.20;;;;;;487410;243;2124;-75
2021/12/31 11:01:22;;;;;;;;;;;19.60;51.40;;;;;;487299;243;1216;-75
2021/12/31 11:03:23;;;;;;;;;;;19.60;51.20;;;;;;487340;243;1079;-75
2021/12/31 11:05:25;;;;;;;;;;;19.60;51.20;;;;;;487377;243;940;-75
2021/12/31 11:07:26;;;;;;;;;;;19.60;51.20;;;;;;487289;243;1112;-75
2021/12/31 11:09:27;;;;;;;;;;;19.50;51.30;;;;;;487453;243;1006;-75
2021/12/31 11:11:29;;;;;;;;;;;19.60;51.30;;;;;;487281;243;1227;-75
2021/12/31 11:13:30;;;;;;;;;;;19.60;51.00;;;;;;487380;243;952;-75
2021/12/31 11:15:31;;;;;;;;;;;19.50;51.00;;;;;;487395;243;1048;-75
2021/12/31 11:17:33;;;;;;;;;;;19.50;51.00;;;;;;487433;243;1099;-75
2021/12/31 11:19:35;;;;;;;;;;;19.60;50.90;;;;;;487401;243;2181;-75
2021/12/31 11:21:35;;;;;;;;;;;19.60;50.90;;;;;;487427;243;1479;-75
2021/12/31 11:23:37;;;;;;;;;;;19.60;50.80;;;;;;487411;243;973;-75
2021/12/31 11:25:38;;;;;;;;;;;19.70;50.70;;;;;;487397;243;1181;-75
2021/12/31 11:27:44;;;;;;;;;;;19.70;50.60;;;;;;487395;243;1131;-75
2021/12/31 11:29:41;;;;;;;;;;;19.70;50.50;;;;;;487237;244;1344;-75
2021/12/31 11:31:42;;;;;;;;;;;19.70;50.50;;;;;;487296;243;1227;-75
2021/12/31 11:33:44;;;;;;;;;;;19.70;50.50;;;;;;487437;243;1248;-75
2021/12/31 11:35:46;;;;;;;;;;;19.70;50.50;;;;;;487348;243;1145;-75
2021/12/31 11:37:46;;;;;;;;;;;19.70;50.50;;;;;;487165;243;1297;-75
2021/12/31 11:39:48;;;;;;;;;;;19.70;50.50;;;;;;487340;243;2199;-75
2021/12/31 11:41:49;;;;;;;;;;;19.60;50.40;;;;;;487265;243;1285;-75
2021/12/31 11:43:50;;;;;;;;;;;19.70;50.30;;;;;;487454;243;1114;-75
2021/12/31 11:45:52;;;;;;;;;;;19.80;50.10;;;;;;487283;243;1157;-75
2021/12/31 11:47:53;;;;;;;;;;;20.00;49.80;;;;;;487447;243;1078;-75
2021/12/31 11:49:54;;;;;;;;;;;20.50;48.60;;;;;;487426;243;1183;-75
2021/12/31 11:51:55;;;;;;;;;;;20.80;47.80;;;;;;487269;243;1113;-75
2021/12/31 11:53:57;;;;;;;;;;;20.90;47.70;;;;;;487507;243;1025;-75
2021/12/31 11:55:58;;;;;;;;;;;20.50;47.90;;;;;;487424;243;1249;-75
2021/12/31 11:57:59;;;;;;;;;;;20.60;48.10;;;;;;487434;243;1170;-75
2021/12/31 12:00:01;;;;;;;;;;;20.50;48.20;;;;;;487431;243;2123;-75